Terminal Aerodrome Forecast
Issued by NWS

Home | Current Version | Previous Version | Text Only | Print | Product List | Glossary On
Versions: 1 2 3 4 5 6 7 8 9 10 11 12
000
FTUS46 KPDT 312300
TAFYKM
TAF
KYKM 312328Z 0100/0124 15007KT P6SM FEW090 FEW150
     FM010300 32008KT P6SM FEW150
     FM011100 32007KT P6SM FEW130 BKN150
     FM011500 VRB05KT P6SM SCT130 BKN150
     FM012000 14006KT P6SM FEW150=

USA.gov is the U.S. government's official web portal to all federal, state and local government web resources and services.